Time;durP1;ratioP1;P1;durP2;ratioP2;P2;SDS_P1;SDS_P2;PMS_P1;PMS_P2;Temp;Humidity;BMP_temperature;BMP_pressure;BME280_temperature;BME280_humidity;BME280_pressure;Samples;Min_cycle;Max_cycle;Signal;HPM_P1;HPM_P2
2023/05/10 00:00:20;;;;;;;0.20;0.20;;;;;;;;;;5076440;28;20232;-78
2023/05/10 00:02:46;;;;;;;0.10;0.10;;;;;;;;;;5114374;28;20206;-78
2023/05/10 00:05:13;;;;;;;0.10;0.10;;;;;;;;;;5075673;28;20375;-77
2023/05/10 00:07:39;;;;;;;0.10;0.10;;;;;;;;;;5115484;28;20297;-78
2023/05/10 00:10:06;;;;;;;0.13;0.13;;;;;;;;;;5084176;28;20473;-78
2023/05/10 00:12:34;;;;;;;0.30;0.30;;;;;;;;;;5072967;28;20250;-78
2023/05/10 00:15:00;;;;;;;0.10;0.10;;;;;;;;;;5084227;28;20205;-78
2023/05/10 00:17:26;;;;;;;0.13;0.13;;;;;;;;;;5106420;28;20240;-78
2023/05/10 00:19:53;;;;;;;0.10;0.10;;;;;;;;;;5083961;28;20197;-78
2023/05/10 00:22:19;;;;;;;0.10;0.10;;;;;;;;;;5106577;28;20245;-78
2023/05/10 00:24:46;;;;;;;0.10;0.10;;;;;;;;;;5084029;28;20205;-78
2023/05/10 00:27:12;;;;;;;0.10;0.10;;;;;;;;;;5106480;28;20244;-78
2023/05/10 00:29:40;;;;;;;0.10;0.10;;;;;;;;;;5083004;28;20228;-78
2023/05/10 00:32:06;;;;;;;0.10;0.10;;;;;;;;;;5105724;28;20246;-78
2023/05/10 00:34:32;;;;;;;0.10;0.10;;;;;;;;;;5084405;28;20232;-77
2023/05/10 00:36:59;;;;;;;2.57;2.30;;;;;;;;;;5103742;28;20303;-78
2023/05/10 00:39:26;;;;;;;0.10;0.10;;;;;;;;;;5085913;28;20249;-78
2023/05/10 00:41:52;;;;;;;0.10;0.10;;;;;;;;;;5101821;28;20258;-78
2023/05/10 00:44:19;;;;;;;0.10;0.10;;;;;;;;;;5087746;28;20240;-78
2023/05/10 00:46:47;;;;;;;0.20;0.20;;;;;;;;;;5099975;28;20427;-78
2023/05/10 00:49:13;;;;;;;0.10;0.10;;;;;;;;;;5089229;28;20249;-78
2023/05/10 00:51:42;;;;;;;0.10;0.10;;;;;;;;;;5098377;28;20303;-79
2023/05/10 00:54:09;;;;;;;0.77;0.77;;;;;;;;;;5090586;28;20225;-77
2023/05/10 00:56:35;;;;;;;0.10;0.10;;;;;;;;;;5096830;28;20304;-77
2023/05/10 00:59:01;;;;;;;0.10;0.10;;;;;;;;;;5092442;28;20221;-78
2023/05/10 01:01:28;;;;;;;0.10;0.10;;;;;;;;;;5094901;28;20298;-79
2023/05/10 01:03:57;;;;;;;0.10;0.10;;;;;;;;;;5094352;28;20214;-78
2023/05/10 01:06:23;;;;;;;0.10;0.10;;;;;;;;;;5093665;28;20248;-78
2023/05/10 01:08:50;;;;;;;0.10;0.10;;;;;;;;;;5095246;28;20291;-78
2023/05/10 01:11:16;;;;;;;0.10;0.10;;;;;;;;;;5091687;28;20301;-78
2023/05/10 01:13:43;;;;;;;0.10;0.10;;;;;;;;;;5097278;28;20275;-79
2023/05/10 01:16:09;;;;;;;0.10;0.10;;;;;;;;;;5090031;28;20260;-78
2023/05/10 01:18:39;;;;;;;0.20;0.20;;;;;;;;;;5098928;28;20204;-78
2023/05/10 01:21:12;;;;;;;0.10;0.10;;;;;;;;;;5088989;28;20238;-79
2023/05/10 01:23:48;;;;;;;0.10;0.10;;;;;;;;;;5098399;28;20209;-78
2023/05/10 01:26:48;;;;;;;0.10;0.10;;;;;;;;;;5084404;28;20623;-78
2023/05/10 01:29:29;;;;;;;1.73;1.70;;;;;;;;;;5024540;28;20232;-79
2023/05/10 01:32:14;;;;;;;0.10;0.10;;;;;;;;;;5026531;28;20241;-78
2023/05/10 01:34:44;;;;;;;0.10;0.10;;;;;;;;;;5062710;28;20204;-78
2023/05/10 01:37:14;;;;;;;0.10;0.10;;;;;;;;;;5091443;28;20445;-78
2023/05/10 01:39:45;;;;;;;0.10;0.10;;;;;;;;;;5083660;28;20183;-78
2023/05/10 01:42:15;;;;;;;0.10;0.10;;;;;;;;;;5109627;28;20237;-78
2023/05/10 01:44:44;;;;;;;0.10;0.10;;;;;;;;;;5086998;28;20228;-78
2023/05/10 01:47:13;;;;;;;0.10;0.10;;;;;;;;;;5109352;28;20250;-79
2023/05/10 01:49:44;;;;;;;0.10;0.10;;;;;;;;;;5087101;28;20266;-78
2023/05/10 01:52:12;;;;;;;0.10;0.10;;;;;;;;;;5109513;28;20306;-78
2023/05/10 01:54:41;;;;;;;0.10;0.10;;;;;;;;;;5087130;28;20451;-79
2023/05/10 01:57:09;;;;;;;0.10;0.10;;;;;;;;;;5109190;28;20318;-78
2023/05/10 01:59:40;;;;;;;0.10;0.10;;;;;;;;;;5086688;28;20203;-78
2023/05/10 02:02:07;;;;;;;0.10;0.10;;;;;;;;;;5108734;28;20235;-78
2023/05/10 02:04:34;;;;;;;0.10;0.10;;;;;;;;;;5086870;28;20204;-78
2023/05/10 02:07:03;;;;;;;0.10;0.10;;;;;;;;;;5107075;28;20259;-78
2023/05/10 02:09:31;;;;;;;0.10;0.10;;;;;;;;;;5088080;28;20477;-78
2023/05/10 02:11:58;;;;;;;0.10;0.10;;;;;;;;;;5106074;28;20239;-78
2023/05/10 02:14:26;;;;;;;0.10;0.10;;;;;;;;;;5089192;28;20379;-78
2023/05/10 02:16:53;;;;;;;0.10;0.10;;;;;;;;;;5104759;28;20239;-78
2023/05/10 02:19:20;;;;;;;0.10;0.10;;;;;;;;;;5090310;28;20393;-78
2023/05/10 02:21:47;;;;;;;0.10;0.10;;;;;;;;;;5103301;28;20310;-78
2023/05/10 02:24:16;;;;;;;0.10;0.10;;;;;;;;;;5091895;28;20232;-78
2023/05/10 02:26:43;;;;;;;0.10;0.10;;;;;;;;;;5101560;28;20244;-78
2023/05/10 02:29:11;;;;;;;0.20;0.20;;;;;;;;;;5092771;28;20295;-79
2023/05/10 02:31:38;;;;;;;0.10;0.10;;;;;;;;;;5100444;28;20239;-79
2023/05/10 02:34:05;;;;;;;7.10;1.77;;;;;;;;;;5093687;28;20200;-79
2023/05/10 02:36:31;;;;;;;0.10;0.10;;;;;;;;;;5098549;28;20259;-78
2023/05/10 02:38:59;;;;;;;0.10;0.10;;;;;;;;;;5095430;28;20218;-78
2023/05/10 02:41:27;;;;;;;0.10;0.10;;;;;;;;;;5096813;28;20251;-78
2023/05/10 02:43:56;;;;;;;0.10;0.10;;;;;;;;;;5097153;28;20279;-78
2023/05/10 02:46:23;;;;;;;0.20;0.20;;;;;;;;;;5096249;28;20258;-78
2023/05/10 02:48:49;;;;;;;0.20;0.20;;;;;;;;;;5097808;28;20210;-78
2023/05/10 02:51:17;;;;;;;0.00;0.00;;;;;;;;;;5093691;28;20500;-78
2023/05/10 02:53:45;;;;;;;0.10;0.10;;;;;;;;;;5099146;28;20228;-78
2023/05/10 02:56:13;;;;;;;0.10;0.10;;;;;;;;;;5092897;28;20251;-78
2023/05/10 02:58:41;;;;;;;0.10;0.10;;;;;;;;;;5100311;28;20227;-78
2023/05/10 03:01:07;;;;;;;0.10;0.10;;;;;;;;;;5091551;28;20238;-79
2023/05/10 03:03:34;;;;;;;0.20;0.20;;;;;;;;;;5101572;28;20280;-78
2023/05/10 03:06:00;;;;;;;0.10;0.10;;;;;;;;;;5089599;28;20239;-78
2023/05/10 03:08:29;;;;;;;0.10;0.10;;;;;;;;;;5103803;28;20211;-78
2023/05/10 03:11:02;;;;;;;0.10;0.10;;;;;;;;;;5088070;28;20235;-79
2023/05/10 03:13:35;;;;;;;0.10;0.10;;;;;;;;;;5103382;28;20291;-78
2023/05/10 03:16:07;;;;;;;0.10;0.10;;;;;;;;;;5089899;28;20240;-78
2023/05/10 03:18:37;;;;;;;0.10;0.10;;;;;;;;;;5101660;28;20431;-79
2023/05/10 03:21:05;;;;;;;0.10;0.10;;;;;;;;;;5090366;28;20437;-78
2023/05/10 03:23:35;;;;;;;0.10;0.10;;;;;;;;;;5101803;28;20232;-79
2023/05/10 03:26:02;;;;;;;0.10;0.10;;;;;;;;;;5089523;28;20239;-78
2023/05/10 03:28:29;;;;;;;0.10;0.10;;;;;;;;;;5102589;28;20272;-78
2023/05/10 03:30:56;;;;;;;0.20;0.20;;;;;;;;;;5087564;28;20557;-78
2023/05/10 03:33:24;;;;;;;0.10;0.10;;;;;;;;;;5104392;28;20231;-78
2023/05/10 03:35:50;;;;;;;0.10;0.10;;;;;;;;;;5085956;28;20239;-79
2023/05/10 03:38:16;;;;;;;0.10;0.10;;;;;;;;;;5106257;28;20282;-78
2023/05/10 03:40:43;;;;;;;0.10;0.10;;;;;;;;;;5083960;28;20254;-79
2023/05/10 03:43:09;;;;;;;0.10;0.10;;;;;;;;;;5107778;28;20438;-78
2023/05/10 03:45:36;;;;;;;0.10;0.10;;;;;;;;;;5082211;28;20246;-78
2023/05/10 03:48:02;;;;;;;0.10;0.10;;;;;;;;;;5109500;28;20204;-78
2023/05/10 03:50:30;;;;;;;0.10;0.10;;;;;;;;;;5079957;28;20466;-78
2023/05/10 03:52:57;;;;;;;0.10;0.10;;;;;;;;;;5111325;28;20317;-78
2023/05/10 03:55:23;;;;;;;0.10;0.10;;;;;;;;;;5078432;28;20204;-78
2023/05/10 03:57:50;;;;;;;0.10;0.10;;;;;;;;;;5112549;28;20227;-78
2023/05/10 04:00:17;;;;;;;0.10;0.10;;;;;;;;;;5076158;28;20207;-78
2023/05/10 04:02:43;;;;;;;0.10;0.10;;;;;;;;;;5114393;28;20262;-78
2023/05/10 04:05:10;;;;;;;0.10;0.10;;;;;;;;;;5084164;28;20227;-78
2023/05/10 04:07:37;;;;;;;0.10;0.10;;;;;;;;;;5106793;28;20244;-78
2023/05/10 04:10:04;;;;;;;0.20;0.20;;;;;;;;;;5084174;28;20284;-78
2023/05/10 04:12:31;;;;;;;0.10;0.10;;;;;;;;;;5106830;28;20261;-78
2023/05/10 04:14:57;;;;;;;0.10;0.10;;;;;;;;;;5084201;28;20203;-78
2023/05/10 04:17:23;;;;;;;0.37;0.37;;;;;;;;;;5106498;28;20264;-78
2023/05/10 04:19:52;;;;;;;0.10;0.10;;;;;;;;;;5084090;28;20200;-78
2023/05/10 04:22:19;;;;;;;0.10;0.10;;;;;;;;;;5106483;28;20237;-78
2023/05/10 04:24:47;;;;;;;0.10;0.10;;;;;;;;;;5084261;28;20613;-78
2023/05/10 04:27:13;;;;;;;0.10;0.10;;;;;;;;;;5106409;28;20245;-79
2023/05/10 04:29:40;;;;;;;0.10;0.10;;;;;;;;;;5083821;28;20234;-78
2023/05/10 04:32:06;;;;;;;0.10;0.10;;;;;;;;;;5105740;28;20465;-78
2023/05/10 04:34:33;;;;;;;0.10;0.10;;;;;;;;;;5084388;28;20236;-78
2023/05/10 04:37:00;;;;;;;0.10;0.10;;;;;;;;;;5104042;28;20346;-78
2023/05/10 04:39:26;;;;;;;3.70;1.80;;;;;;;;;;5085534;28;20212;-78
2023/05/10 04:41:54;;;;;;;0.10;0.10;;;;;;;;;;5101823;28;20261;-78
2023/05/10 04:44:20;;;;;;;0.10;0.10;;;;;;;;;;5087557;28;20202;-78
2023/05/10 04:46:47;;;;;;;0.10;0.10;;;;;;;;;;5100306;28;20445;-78
2023/05/10 04:49:14;;;;;;;0.10;0.10;;;;;;;;;;5089132;28;20270;-78
2023/05/10 04:51:40;;;;;;;0.20;0.20;;;;;;;;;;5098200;28;20237;-78
2023/05/10 04:54:07;;;;;;;1.90;1.57;;;;;;;;;;5091293;28;20454;-78
2023/05/10 04:56:33;;;;;;;0.20;0.20;;;;;;;;;;5096355;28;20508;-78
2023/05/10 04:59:01;;;;;;;0.30;0.30;;;;;;;;;;5092871;28;20223;-78
2023/05/10 05:01:27;;;;;;;0.10;0.10;;;;;;;;;;5094731;28;20237;-78
2023/05/10 05:03:53;;;;;;;0.10;0.10;;;;;;;;;;5094671;28;20208;-78
2023/05/10 05:06:20;;;;;;;0.10;0.10;;;;;;;;;;5092928;28;20493;-78
2023/05/10 05:08:49;;;;;;;0.10;0.10;;;;;;;;;;5096162;28;20199;-78
2023/05/10 05:11:15;;;;;;;0.10;0.10;;;;;;;;;;5091017;28;20241;-78
2023/05/10 05:13:41;;;;;;;0.10;0.10;;;;;;;;;;5097911;28;20433;-78
2023/05/10 05:16:09;;;;;;;0.10;0.10;;;;;;;;;;5092250;28;20295;-78
2023/05/10 05:18:36;;;;;;;0.50;0.43;;;;;;;;;;5103499;28;20208;-78
2023/05/10 05:21:02;;;;;;;0.50;0.50;;;;;;;;;;5092101;28;20243;-78
2023/05/10 05:23:29;;;;;;;0.10;0.10;;;;;;;;;;5105103;28;20511;-78
2023/05/10 05:25:55;;;;;;;0.10;0.10;;;;;;;;;;5090051;28;20238;-78
2023/05/10 05:28:21;;;;;;;0.10;0.10;;;;;;;;;;5107042;28;20257;-78
2023/05/10 05:30:48;;;;;;;0.10;0.10;;;;;;;;;;5087884;28;20239;-78
2023/05/10 05:33:16;;;;;;;0.10;0.10;;;;;;;;;;5112778;28;20267;-77
2023/05/10 05:35:47;;;;;;;0.10;0.10;;;;;;;;;;5086598;28;20254;-77
2023/05/10 05:38:13;;;;;;;0.53;0.53;;;;;;;;;;5108768;28;20211;-77
2023/05/10 05:40:40;;;;;;;0.10;0.10;;;;;;;;;;5085421;28;20427;-76
2023/05/10 05:43:06;;;;;;;0.40;0.40;;;;;;;;;;5111007;28;20242;-77
2023/05/10 05:45:33;;;;;;;0.10;0.10;;;;;;;;;;5083399;28;20238;-76
2023/05/10 05:47:59;;;;;;;0.10;0.10;;;;;;;;;;5113082;28;20253;-76
2023/05/10 05:50:27;;;;;;;0.10;0.10;;;;;;;;;;5081489;28;20227;-77
2023/05/10 05:52:53;;;;;;;0.10;0.10;;;;;;;;;;5114791;28;20456;-76
2023/05/10 05:55:20;;;;;;;0.10;0.10;;;;;;;;;;5079956;28;20201;-77
2023/05/10 05:57:46;;;;;;;0.20;0.20;;;;;;;;;;5116019;28;20237;-77
2023/05/10 06:00:13;;;;;;;0.10;0.10;;;;;;;;;;5077920;28;20571;-77
2023/05/10 06:02:40;;;;;;;0.10;0.10;;;;;;;;;;5117817;28;20188;-76
2023/05/10 06:05:07;;;;;;;3.07;0.77;;;;;;;;;;5086964;28;20206;-76
2023/05/10 06:07:35;;;;;;;0.10;0.10;;;;;;;;;;5075127;28;20213;-77
2023/05/10 06:10:02;;;;;;;0.17;0.17;;;;;;;;;;5086471;28;20207;-77
2023/05/10 06:12:29;;;;;;;0.17;0.17;;;;;;;;;;5095023;28;20262;-76
2023/05/10 06:14:55;;;;;;;0.30;0.30;;;;;;;;;;5107071;28;20424;-76
2023/05/10 06:17:22;;;;;;;0.10;0.10;;;;;;;;;;5093271;28;20246;-76
2023/05/10 06:19:48;;;;;;;1.03;1.03;;;;;;;;;;5086613;28;20246;-77
2023/05/10 06:22:14;;;;;;;0.10;0.10;;;;;;;;;;5092056;28;20247;-77
2023/05/10 06:24:43;;;;;;;0.10;0.10;;;;;;;;;;5086630;28;20213;-77
2023/05/10 06:27:09;;;;;;;0.10;0.10;;;;;;;;;;5090564;28;20449;-76
2023/05/10 06:29:36;;;;;;;0.10;0.10;;;;;;;;;;5086527;28;20213;-77
2023/05/10 06:32:03;;;;;;;0.10;0.10;;;;;;;;;;5091095;28;20494;-76
2023/05/10 06:34:29;;;;;;;0.10;0.10;;;;;;;;;;5086467;28;20213;-76
2023/05/10 06:36:55;;;;;;;0.10;0.10;;;;;;;;;;5089910;28;20266;-76
2023/05/10 06:39:22;;;;;;;0.20;0.20;;;;;;;;;;5087442;28;20240;-76
2023/05/10 06:41:49;;;;;;;0.37;0.37;;;;;;;;;;5088947;28;20250;-77
2023/05/10 06:44:16;;;;;;;0.10;0.10;;;;;;;;;;5088389;28;20239;-76
2023/05/10 06:46:42;;;;;;;0.10;0.10;;;;;;;;;;5088263;28;20237;-77
2023/05/10 06:49:08;;;;;;;0.23;0.23;;;;;;;;;;5089144;28;20242;-77
2023/05/10 06:51:35;;;;;;;0.10;0.10;;;;;;;;;;5086950;28;20263;-76
2023/05/10 06:54:02;;;;;;;1.50;0.60;;;;;;;;;;5090268;28;20231;-77
2023/05/10 06:56:28;;;;;;;0.10;0.10;;;;;;;;;;5086259;28;20247;-76
2023/05/10 06:58:56;;;;;;;0.10;0.10;;;;;;;;;;5090648;28;20225;-77
2023/05/10 07:01:23;;;;;;;0.20;0.20;;;;;;;;;;5085504;28;20463;-77
2023/05/10 07:03:49;;;;;;;0.10;0.10;;;;;;;;;;5091749;28;20210;-77
2023/05/10 07:06:15;;;;;;;7.80;1.30;;;;;;;;;;5085213;28;20439;-77
2023/05/10 07:08:42;;;;;;;0.10;0.10;;;;;;;;;;5091982;28;20216;-77
2023/05/10 07:11:08;;;;;;;0.10;0.10;;;;;;;;;;5083164;28;20653;-76
2023/05/10 07:13:36;;;;;;;0.10;0.10;;;;;;;;;;5093295;28;20204;-77
2023/05/10 07:16:06;;;;;;;0.20;0.20;;;;;;;;;;5082491;28;20301;-77
2023/05/10 07:18:32;;;;;;;5.00;2.73;;;;;;;;;;5093271;28;20231;-76
2023/05/10 07:20:58;;;;;;;0.67;0.67;;;;;;;;;;5081760;28;20235;-76
2023/05/10 07:23:25;;;;;;;0.60;0.60;;;;;;;;;;5094114;28;20198;-78
2023/05/10 07:25:52;;;;;;;0.67;0.67;;;;;;;;;;5080997;28;20249;-77
2023/05/10 07:28:18;;;;;;;0.10;0.10;;;;;;;;;;5095230;28;20240;-77
2023/05/10 07:30:45;;;;;;;0.27;0.27;;;;;;;;;;5079988;28;20265;-77
2023/05/10 07:33:14;;;;;;;0.47;0.47;;;;;;;;;;5095707;28;20233;-77
2023/05/10 07:35:40;;;;;;;0.10;0.10;;;;;;;;;;5079385;28;20495;-77
2023/05/10 07:38:06;;;;;;;0.27;0.27;;;;;;;;;;5095752;28;20219;-77
2023/05/10 07:40:33;;;;;;;0.10;0.10;;;;;;;;;;5078059;28;20463;-77
2023/05/10 07:42:59;;;;;;;0.10;0.10;;;;;;;;;;5097134;28;20432;-77
2023/05/10 07:45:26;;;;;;;0.70;0.43;;;;;;;;;;5077990;28;20204;-77
2023/05/10 07:47:52;;;;;;;1.60;0.83;;;;;;;;;;5098016;28;20195;-78
2023/05/10 07:50:20;;;;;;;0.10;0.10;;;;;;;;;;5075837;28;20206;-77
2023/05/10 07:52:47;;;;;;;0.57;0.50;;;;;;;;;;5098498;28;20304;-77
2023/05/10 07:55:14;;;;;;;0.57;0.57;;;;;;;;;;5075449;28;20214;-77
2023/05/10 07:57:40;;;;;;;2.33;1.17;;;;;;;;;;5099620;28;20251;-77
2023/05/10 08:00:07;;;;;;;0.33;0.33;;;;;;;;;;5084794;28;20239;-77
2023/05/10 08:02:33;;;;;;;0.47;0.40;;;;;;;;;;5093357;28;20209;-75
2023/05/10 08:05:00;;;;;;;0.10;0.10;;;;;;;;;;5104754;28;20234;-73
2023/05/10 08:07:28;;;;;;;0.10;0.10;;;;;;;;;;5107472;28;20628;-74
2023/05/10 08:09:54;;;;;;;0.10;0.10;;;;;;;;;;5084558;28;20209;-74
2023/05/10 08:12:20;;;;;;;0.10;0.10;;;;;;;;;;5106732;28;20453;-72
2023/05/10 08:14:47;;;;;;;0.63;0.63;;;;;;;;;;5084222;28;20235;-74
2023/05/10 08:17:13;;;;;;;0.50;0.50;;;;;;;;;;5106626;28;20306;-74
2023/05/10 08:19:40;;;;;;;0.77;0.77;;;;;;;;;;5084367;28;20204;-74
2023/05/10 08:22:06;;;;;;;0.10;0.10;;;;;;;;;;5106240;28;20260;-75
2023/05/10 08:24:38;;;;;;;0.10;0.10;;;;;;;;;;5084603;28;20243;-75
2023/05/10 08:27:04;;;;;;;0.30;0.30;;;;;;;;;;5105545;28;20257;-75
2023/05/10 08:29:31;;;;;;;0.10;0.10;;;;;;;;;;5084683;28;20407;-75
2023/05/10 08:31:57;;;;;;;0.10;0.10;;;;;;;;;;5103336;28;20492;-75
2023/05/10 08:34:23;;;;;;;0.37;0.37;;;;;;;;;;5086909;28;20529;-75
2023/05/10 08:36:50;;;;;;;0.10;0.10;;;;;;;;;;5103557;28;20243;-74
2023/05/10 08:39:16;;;;;;;0.40;0.40;;;;;;;;;;5088577;28;20212;-75
2023/05/10 08:41:45;;;;;;;0.10;0.10;;;;;;;;;;5099267;28;20303;-75
2023/05/10 08:44:11;;;;;;;0.10;0.10;;;;;;;;;;5090344;28;20491;-74
2023/05/10 08:46:39;;;;;;;0.10;0.10;;;;;;;;;;5097745;28;20481;-74
2023/05/10 08:49:07;;;;;;;0.00;0.00;;;;;;;;;;5091306;28;20431;-75
2023/05/10 08:51:36;;;;;;;0.03;0.03;;;;;;;;;;5096317;28;20238;-75
2023/05/10 08:54:03;;;;;;;0.10;0.10;;;;;;;;;;5092212;28;20226;-75
2023/05/10 08:56:29;;;;;;;0.10;0.10;;;;;;;;;;5095520;28;20297;-75
2023/05/10 08:58:58;;;;;;;0.40;0.40;;;;;;;;;;5093809;28;20233;-74
2023/05/10 09:01:25;;;;;;;0.10;0.10;;;;;;;;;;5094039;28;20236;-74
2023/05/10 09:03:51;;;;;;;0.10;0.10;;;;;;;;;;5095398;28;20398;-74
2023/05/10 09:06:17;;;;;;;0.10;0.10;;;;;;;;;;5092405;28;20256;-74
2023/05/10 09:08:44;;;;;;;0.10;0.10;;;;;;;;;;5096764;28;20267;-75
2023/05/10 09:11:11;;;;;;;0.10;0.10;;;;;;;;;;5089948;28;20235;-74
2023/05/10 09:13:37;;;;;;;0.40;0.33;;;;;;;;;;5098643;28;20205;-74
2023/05/10 09:16:05;;;;;;;0.10;0.10;;;;;;;;;;5088298;28;20250;-74
2023/05/10 09:18:32;;;;;;;0.10;0.10;;;;;;;;;;5100353;28;20452;-74
2023/05/10 09:20:58;;;;;;;3.63;2.63;;;;;;;;;;5086791;28;20271;-74
2023/05/10 09:23:31;;;;;;;1.17;0.80;;;;;;;;;;5101883;28;20205;-74
2023/05/10 09:26:03;;;;;;;0.10;0.10;;;;;;;;;;5086699;28;20316;-74
2023/05/10 09:28:32;;;;;;;0.10;0.10;;;;;;;;;;5100617;28;20400;-74
2023/05/10 09:30:58;;;;;;;0.10;0.10;;;;;;;;;;5086569;28;20611;-74
2023/05/10 09:33:26;;;;;;;0.10;0.10;;;;;;;;;;5101840;28;20211;-73
2023/05/10 09:35:53;;;;;;;0.10;0.10;;;;;;;;;;5085281;28;20256;-74
2023/05/10 09:38:19;;;;;;;0.30;0.30;;;;;;;;;;5103403;28;20243;-74
2023/05/10 09:40:54;;;;;;;0.10;0.10;;;;;;;;;;5083327;28;20245;-73
2023/05/10 09:43:20;;;;;;;1.50;0.30;;;;;;;;;;5103029;28;20244;-74
2023/05/10 09:45:48;;;;;;;0.10;0.10;;;;;;;;;;5083344;28;20259;-74
2023/05/10 09:48:15;;;;;;;0.37;0.37;;;;;;;;;;5104473;28;20262;-74
2023/05/10 09:50:43;;;;;;;0.10;0.10;;;;;;;;;;5082267;28;20238;-73
2023/05/10 09:53:09;;;;;;;0.10;0.10;;;;;;;;;;5106131;28;20295;-74
2023/05/10 09:55:39;;;;;;;0.20;0.20;;;;;;;;;;5080536;28;20250;-74
2023/05/10 09:58:09;;;;;;;0.10;0.10;;;;;;;;;;5106906;28;20418;-74
2023/05/10 10:00:36;;;;;;;0.10;0.10;;;;;;;;;;5080619;28;20472;-73
2023/05/10 10:03:03;;;;;;;0.10;0.10;;;;;;;;;;5111442;28;20189;-74
2023/05/10 10:05:30;;;;;;;0.10;0.10;;;;;;;;;;5082650;28;20273;-74
2023/05/10 10:07:59;;;;;;;0.10;0.10;;;;;;;;;;5113209;28;20208;-74
2023/05/10 10:10:26;;;;;;;0.10;0.10;;;;;;;;;;5080861;28;20281;-74
2023/05/10 10:12:52;;;;;;;0.10;0.10;;;;;;;;;;5114119;28;20389;-73
2023/05/10 10:15:19;;;;;;;0.10;0.10;;;;;;;;;;5079424;28;20212;-74
2023/05/10 10:17:46;;;;;;;0.20;0.20;;;;;;;;;;5115744;28;20208;-74
2023/05/10 10:20:13;;;;;;;0.10;0.10;;;;;;;;;;5077640;28;20207;-75
2023/05/10 10:22:39;;;;;;;0.10;0.10;;;;;;;;;;5117426;28;20242;-74
2023/05/10 10:25:08;;;;;;;0.20;0.20;;;;;;;;;;5086418;28;20501;-74
2023/05/10 10:27:39;;;;;;;0.10;0.10;;;;;;;;;;5074691;28;20217;-74
2023/05/10 10:30:11;;;;;;;0.10;0.10;;;;;;;;;;5086324;28;20226;-73
2023/05/10 10:32:43;;;;;;;0.10;0.10;;;;;;;;;;5094621;28;20220;-73
2023/05/10 10:35:10;;;;;;;0.20;0.20;;;;;;;;;;5096623;28;20205;-74
2023/05/10 10:37:44;;;;;;;0.00;0.00;;;;;;;;;;5121562;28;20221;-73
2023/05/10 10:40:28;;;;;;;0.10;0.10;;;;;;;;;;5106709;28;20208;-73
2023/05/10 10:42:55;;;;;;;0.30;0.30;;;;;;;;;;5106249;28;20387;-73
2023/05/10 10:45:22;;;;;;;1.03;1.03;;;;;;;;;;5097699;28;20213;-73
2023/05/10 10:47:49;;;;;;;0.63;0.27;;;;;;;;;;5120398;28;20246;-73
2023/05/10 10:50:16;;;;;;;0.10;0.10;;;;;;;;;;5097006;28;20386;-73
2023/05/10 10:52:43;;;;;;;0.10;0.10;;;;;;;;;;5120857;28;20398;-72
2023/05/10 10:55:10;;;;;;;0.10;0.10;;;;;;;;;;5096015;28;20429;-73
2023/05/10 10:57:45;;;;;;;0.10;0.10;;;;;;;;;;5121313;28;20231;-72
2023/05/10 11:00:28;;;;;;;0.10;0.10;;;;;;;;;;5096051;28;20388;-73
2023/05/10 11:02:55;;;;;;;0.17;0.17;;;;;;;;;;5118918;28;20205;-73
2023/05/10 11:05:26;;;;;;;0.10;0.10;;;;;;;;;;5097500;28;20232;-72
2023/05/10 11:07:53;;;;;;;0.10;0.10;;;;;;;;;;5119383;28;20206;-72
2023/05/10 11:10:20;;;;;;;0.30;0.30;;;;;;;;;;5097136;28;20205;-73
2023/05/10 11:13:00;;;;;;;0.60;0.60;;;;;;;;;;5118955;28;20214;-73
2023/05/10 11:15:30;;;;;;;0.10;0.10;;;;;;;;;;5097980;28;20240;-73
2023/05/10 11:17:56;;;;;;;0.40;0.40;;;;;;;;;;5118398;28;20197;-73
2023/05/10 11:20:24;;;;;;;0.10;0.10;;;;;;;;;;5097565;28;20226;-73
2023/05/10 11:22:51;;;;;;;0.10;0.10;;;;;;;;;;5119197;28;20501;-74
2023/05/10 11:25:18;;;;;;;0.20;0.20;;;;;;;;;;5096412;28;20279;-74
2023/05/10 11:27:44;;;;;;;0.10;0.10;;;;;;;;;;5119984;28;20227;-75
2023/05/10 11:30:13;;;;;;;0.10;0.10;;;;;;;;;;5095575;28;20203;-75
2023/05/10 11:32:40;;;;;;;0.10;0.10;;;;;;;;;;5120340;28;20215;-74
2023/05/10 11:35:10;;;;;;;0.10;0.10;;;;;;;;;;5100375;28;20393;-74
2023/05/10 11:37:39;;;;;;;0.20;0.20;;;;;;;;;;5120336;28;20235;-74
2023/05/10 11:40:06;;;;;;;0.10;0.10;;;;;;;;;;5105401;28;20266;-75
2023/05/10 11:42:33;;;;;;;0.10;0.10;;;;;;;;;;5093594;28;20438;-75
2023/05/10 11:45:01;;;;;;;0.00;0.00;;;;;;;;;;5105377;28;20212;-74
2023/05/10 11:47:29;;;;;;;0.10;0.10;;;;;;;;;;5110505;28;20313;-75
2023/05/10 11:49:55;;;;;;;0.10;0.10;;;;;;;;;;5104858;28;20209;-75
2023/05/10 11:52:21;;;;;;;0.10;0.10;;;;;;;;;;5110255;28;20523;-75
2023/05/10 11:54:51;;;;;;;0.10;0.10;;;;;;;;;;5105147;28;20234;-74
2023/05/10 11:57:19;;;;;;;0.10;0.10;;;;;;;;;;5110216;28;20230;-75
2023/05/10 11:59:48;;;;;;;0.10;0.10;;;;;;;;;;5104959;28;20549;-75
2023/05/10 12:02:14;;;;;;;0.10;0.10;;;;;;;;;;5110174;28;20290;-75
2023/05/10 12:04:42;;;;;;;0.17;0.17;;;;;;;;;;5104410;28;20208;-75
2023/05/10 12:07:09;;;;;;;0.10;0.10;;;;;;;;;;5110140;28;20242;-75
2023/05/10 12:09:35;;;;;;;0.10;0.10;;;;;;;;;;5104853;28;20423;-74
2023/05/10 12:12:03;;;;;;;0.10;0.10;;;;;;;;;;5108967;28;20456;-75
2023/05/10 12:14:33;;;;;;;0.23;0.20;;;;;;;;;;5105010;28;20204;-75
2023/05/10 12:17:02;;;;;;;3.07;1.60;;;;;;;;;;5108794;28;20247;-75
2023/05/10 12:19:28;;;;;;;0.10;0.10;;;;;;;;;;5105162;28;20211;-75
2023/05/10 12:21:56;;;;;;;0.10;0.10;;;;;;;;;;5108282;28;20283;-75
2023/05/10 12:24:24;;;;;;;0.10;0.10;;;;;;;;;;5105832;28;20276;-75
2023/05/10 12:26:51;;;;;;;0.10;0.10;;;;;;;;;;5107381;28;20240;-75
2023/05/10 12:29:18;;;;;;;0.30;0.30;;;;;;;;;;5106315;28;20209;-75
2023/05/10 12:31:51;;;;;;;0.40;0.40;;;;;;;;;;5106562;28;20258;-75
2023/05/10 12:34:23;;;;;;;0.47;0.47;;;;;;;;;;5106140;28;20241;-75
2023/05/10 12:37:06;;;;;;;;;;;;;;;;;;;;;
2023/05/10 12:39:44;;;;;;;0.10;0.10;;;;;;;;;;5104072;28;20218;-75
2023/05/10 12:42:10;;;;;;;0.10;0.10;;;;;;;;;;5109454;28;20309;-75
2023/05/10 12:44:37;;;;;;;0.10;0.10;;;;;;;;;;5104098;28;20211;-75
2023/05/10 12:47:03;;;;;;;0.00;0.00;;;;;;;;;;5109034;28;20238;-74
2023/05/10 12:49:30;;;;;;;0.10;0.10;;;;;;;;;;5104622;28;20236;-75
2023/05/10 12:51:58;;;;;;;0.53;0.53;;;;;;;;;;5107779;28;20560;-75
2023/05/10 12:54:24;;;;;;;0.10;0.10;;;;;;;;;;5105060;28;20278;-75
2023/05/10 12:56:52;;;;;;;0.10;0.10;;;;;;;;;;5107074;28;20314;-75
2023/05/10 12:59:18;;;;;;;0.33;0.33;;;;;;;;;;5105754;28;20220;-75
2023/05/10 13:01:45;;;;;;;0.40;0.40;;;;;;;;;;5106483;28;20496;-77
2023/05/10 13:04:11;;;;;;;0.10;0.10;;;;;;;;;;5107267;28;20229;-77
2023/05/10 13:06:38;;;;;;;0.10;0.10;;;;;;;;;;5105370;28;20250;-75
2023/05/10 13:09:05;;;;;;;0.17;0.17;;;;;;;;;;5107646;28;20272;-76
2023/05/10 13:11:31;;;;;;;0.00;0.00;;;;;;;;;;5104164;28;20262;-72
2023/05/10 13:14:02;;;;;;;0.10;0.10;;;;;;;;;;5108655;28;20555;-74
2023/05/10 13:16:29;;;;;;;2.43;0.87;;;;;;;;;;5103913;28;20278;-75
2023/05/10 13:18:55;;;;;;;0.10;0.10;;;;;;;;;;5108575;28;20272;-74
2023/05/10 13:21:22;;;;;;;0.10;0.10;;;;;;;;;;5103228;28;20253;-73
2023/05/10 13:23:48;;;;;;;0.10;0.10;;;;;;;;;;5109543;28;20209;-75
2023/05/10 13:26:14;;;;;;;0.10;0.10;;;;;;;;;;5102378;28;20445;-74
2023/05/10 13:28:41;;;;;;;0.10;0.10;;;;;;;;;;5110456;28;20200;-74
2023/05/10 13:31:09;;;;;;;0.97;0.97;;;;;;;;;;5101091;28;20255;-75
2023/05/10 13:33:38;;;;;;;0.33;0.33;;;;;;;;;;5111109;28;20541;-74
2023/05/10 13:36:07;;;;;;;0.10;0.10;;;;;;;;;;5101562;28;20242;-74
2023/05/10 13:38:33;;;;;;;0.10;0.10;;;;;;;;;;5115314;28;20205;-75
2023/05/10 13:41:02;;;;;;;0.10;0.10;;;;;;;;;;5104357;28;20444;-74
2023/05/10 13:43:29;;;;;;;0.10;0.10;;;;;;;;;;5116211;28;20271;-74
2023/05/10 13:45:56;;;;;;;0.10;0.10;;;;;;;;;;5103300;28;20239;-74
2023/05/10 13:48:24;;;;;;;0.10;0.10;;;;;;;;;;5116679;28;20205;-74
2023/05/10 13:50:50;;;;;;;0.10;0.10;;;;;;;;;;5102995;28;20245;-75
2023/05/10 13:53:17;;;;;;;0.10;0.10;;;;;;;;;;5117380;28;20293;-74
2023/05/10 13:55:43;;;;;;;0.10;0.10;;;;;;;;;;5101912;28;20243;-74
2023/05/10 13:58:10;;;;;;;0.87;0.83;;;;;;;;;;5118237;28;20252;-74
2023/05/10 14:00:36;;;;;;;0.10;0.10;;;;;;;;;;5100908;28;20247;-74
2023/05/10 14:03:08;;;;;;;0.10;0.10;;;;;;;;;;5119153;28;20196;-74
2023/05/10 14:05:36;;;;;;;0.10;0.10;;;;;;;;;;5100565;28;20451;-74
2023/05/10 14:08:03;;;;;;;0.10;0.10;;;;;;;;;;5119383;28;20276;-74
2023/05/10 14:10:30;;;;;;;0.10;0.10;;;;;;;;;;5099854;28;20267;-75
2023/05/10 14:12:57;;;;;;;0.07;0.07;;;;;;;;;;5119965;28;20250;-75
2023/05/10 14:15:23;;;;;;;0.10;0.10;;;;;;;;;;5098727;28;20205;-74
2023/05/10 14:17:50;;;;;;;0.10;0.10;;;;;;;;;;5120443;28;20273;-74
2023/05/10 14:20:16;;;;;;;0.10;0.10;;;;;;;;;;5097908;28;20447;-74
2023/05/10 14:22:44;;;;;;;0.10;0.10;;;;;;;;;;5121382;28;20213;-74
2023/05/10 14:25:10;;;;;;;0.10;0.10;;;;;;;;;;5096917;28;20229;-74
2023/05/10 14:27:37;;;;;;;0.60;0.60;;;;;;;;;;5121998;28;20239;-74
2023/05/10 14:30:03;;;;;;;0.50;0.50;;;;;;;;;;5106877;28;20214;-75
2023/05/10 14:32:31;;;;;;;0.10;0.10;;;;;;;;;;5111918;28;20243;-74
2023/05/10 14:34:58;;;;;;;0.10;0.10;;;;;;;;;;5106783;28;20210;-74
2023/05/10 14:37:24;;;;;;;0.07;0.07;;;;;;;;;;5111949;28;20308;-74
2023/05/10 14:39:52;;;;;;;0.10;0.10;;;;;;;;;;5106740;28;20244;-74
2023/05/10 14:42:18;;;;;;;0.00;0.00;;;;;;;;;;5111917;28;20553;-75
2023/05/10 14:44:45;;;;;;;0.10;0.10;;;;;;;;;;5106745;28;20198;-74